createdAt,value
2022-08-15T00:00:31.224Z,8.90
2022-08-15T00:01:31.303Z,8.10
2022-08-15T00:02:34.020Z,7.60
2022-08-15T00:04:00.581Z,8.30
2022-08-15T00:04:34.095Z,8.20
2022-08-15T00:05:31.111Z,8.70
2022-08-15T00:06:39.109Z,8.20
2022-08-15T00:07:45.795Z,7.10
2022-08-15T00:08:50.653Z,8.60
2022-08-15T00:09:55.873Z,7.80
2022-08-15T00:11:02.206Z,8.90
2022-08-15T00:11:30.980Z,9.10
2022-08-15T00:12:35.335Z,10.10
2022-08-15T00:13:30.937Z,8.30
2022-08-15T00:14:32.353Z,9.60
2022-08-15T00:15:34.317Z,9.90
2022-08-15T00:16:30.867Z,10.00
2022-08-15T00:17:47.945Z,8.50
2022-08-15T00:18:30.823Z,8.60
2022-08-15T00:19:32.574Z,6.80
2022-08-15T00:20:33.495Z,8.00
2022-08-15T00:21:30.757Z,8.90
2022-08-15T00:22:34.428Z,8.70
2022-08-15T00:23:30.844Z,8.60
2022-08-15T00:24:30.688Z,6.80
2022-08-15T00:25:30.718Z,8.20
2022-08-15T00:26:55.206Z,9.10
2022-08-15T00:27:30.622Z,6.90
2022-08-15T00:28:36.273Z,6.90
2022-08-15T00:29:38.173Z,7.90
2022-08-15T00:30:49.786Z,7.30
2022-08-15T00:31:41.993Z,7.40
2022-08-15T00:33:02.430Z,8.40
2022-08-15T00:33:30.596Z,7.10
2022-08-15T00:34:38.989Z,7.20
2022-08-15T00:35:30.449Z,7.40
2022-08-15T00:36:53.088Z,8.50
2022-08-15T00:37:30.401Z,9.30
2022-08-15T00:38:38.983Z,7.20
2022-08-15T00:39:33.232Z,7.30
2022-08-15T00:40:31.669Z,6.70
2022-08-15T00:41:35.345Z,6.60
2022-08-15T00:42:30.708Z,7.60
2022-08-15T00:43:31.000Z,8.00
2022-08-15T00:45:00.372Z,6.60
2022-08-15T00:45:33.108Z,7.70
2022-08-15T00:46:30.203Z,7.00
2022-08-15T00:47:31.848Z,8.80
2022-08-15T00:48:30.160Z,6.60
2022-08-15T00:49:30.138Z,7.40
2022-08-15T00:50:33.617Z,7.40
2022-08-15T00:51:30.663Z,7.20
2022-08-15T00:52:30.800Z,6.80
2022-08-15T00:53:30.414Z,7.60
2022-08-15T00:54:56.238Z,7.70
2022-08-15T00:55:30.626Z,9.70
2022-08-15T00:56:30.974Z,7.80
2022-08-15T00:57:59.680Z,8.00
2022-08-15T00:58:34.302Z,7.10
2022-08-15T00:59:31.753Z,7.40
2022-08-15T01:00:33.997Z,7.60
2022-08-15T01:01:29.906Z,7.60
2022-08-15T01:02:35.553Z,5.90
2022-08-15T01:03:29.829Z,7.30
2022-08-15T01:04:35.111Z,7.90
2022-08-15T01:05:29.786Z,8.40
2022-08-15T01:06:31.960Z,8.70
2022-08-15T01:07:29.740Z,6.90
2022-08-15T01:08:36.129Z,6.10
2022-08-15T01:09:29.696Z,6.30
2022-08-15T01:10:36.309Z,8.30
2022-08-15T01:11:33.780Z,6.90
2022-08-15T01:12:29.631Z,8.10
2022-08-15T01:14:04.492Z,7.20
2022-08-15T01:14:55.778Z,7.10
2022-08-15T01:15:42.019Z,8.40
2022-08-15T01:16:34.818Z,5.60
2022-08-15T01:17:30.122Z,6.20
2022-08-15T01:18:34.814Z,7.30
2022-08-15T01:19:29.761Z,6.50
2022-08-15T01:20:29.455Z,6.90
2022-08-15T01:21:29.432Z,7.80
2022-08-15T01:22:29.410Z,6.90
2022-08-15T01:23:39.351Z,6.90
2022-08-15T01:24:29.368Z,6.90
2022-08-15T01:26:41.435Z,8.30
2022-08-15T01:26:42.915Z,7.70
2022-08-15T01:27:34.654Z,8.50
2022-08-15T01:28:31.531Z,8.80
2022-08-15T01:29:29.255Z,7.90
2022-08-15T01:31:00.713Z,8.30
2022-08-15T01:31:29.212Z,8.50
2022-08-15T01:32:29.188Z,9.50
2022-08-15T01:33:29.166Z,8.70
2022-08-15T01:34:29.145Z,7.80
2022-08-15T01:35:29.123Z,8.60
2022-08-15T01:36:31.659Z,7.20
2022-08-15T01:37:57.069Z,8.10
2022-08-15T01:38:36.715Z,7.90
2022-08-15T01:39:29.087Z,9.00
2022-08-15T01:40:51.460Z,8.30
2022-08-15T01:41:36.793Z,7.70
2022-08-15T01:42:28.968Z,9.40
2022-08-15T01:43:28.948Z,9.60
2022-08-15T01:44:32.793Z,7.80
2022-08-15T01:45:28.903Z,8.70
2022-08-15T01:46:28.881Z,9.10
2022-08-15T01:47:28.860Z,9.30
2022-08-15T01:48:28.839Z,10.70
2022-08-15T01:49:28.815Z,9.30
2022-08-15T01:50:31.106Z,8.10
2022-08-15T01:51:28.772Z,8.40
2022-08-15T01:52:59.392Z,9.10
2022-08-15T01:53:29.931Z,8.40
2022-08-15T01:54:58.675Z,7.70
2022-08-15T01:55:32.630Z,9.00
2022-08-15T01:56:36.377Z,7.90
2022-08-15T01:57:28.635Z,9.20
2022-08-15T01:58:31.240Z,8.50
2022-08-15T01:59:32.577Z,8.60
2022-08-15T02:00:28.573Z,9.70
2022-08-15T02:01:35.156Z,8.70
2022-08-15T02:02:39.856Z,10.30
2022-08-15T02:03:28.505Z,10.30
2022-08-15T02:04:28.481Z,9.30
2022-08-15T02:05:31.251Z,8.60
2022-08-15T02:06:35.768Z,8.20
2022-08-15T02:07:32.387Z,9.60
2022-08-15T02:08:34.681Z,9.80
2022-08-15T02:09:38.889Z,8.90
2022-08-15T02:10:28.347Z,7.60
2022-08-15T02:11:28.327Z,10.30
2022-08-15T02:13:03.517Z,8.70
2022-08-15T02:13:28.281Z,9.20
2022-08-15T02:14:38.263Z,8.10
2022-08-15T02:15:28.235Z,9.00
2022-08-15T02:16:28.211Z,8.00
2022-08-15T02:17:31.689Z,9.60
2022-08-15T02:18:28.168Z,7.60
2022-08-15T02:19:28.145Z,9.80
2022-08-15T02:20:28.122Z,9.40
2022-08-15T02:21:37.225Z,9.10
2022-08-15T02:22:28.394Z,10.50
2022-08-15T02:23:30.150Z,9.70
2022-08-15T02:24:28.032Z,11.70
2022-08-15T02:25:28.010Z,8.50
2022-08-15T02:26:27.987Z,10.40
2022-08-15T02:27:27.965Z,10.00
2022-08-15T02:28:35.363Z,10.40
2022-08-15T02:29:27.919Z,8.30
2022-08-15T02:30:31.038Z,10.40
2022-08-15T02:31:27.877Z,10.10
2022-08-15T02:32:30.890Z,9.10
2022-08-15T02:33:27.832Z,9.50
2022-08-15T02:34:44.589Z,9.00
2022-08-15T02:35:28.672Z,9.30
2022-08-15T02:36:31.423Z,10.60
2022-08-15T02:37:27.741Z,12.40
2022-08-15T02:38:48.029Z,10.20
2022-08-15T02:39:27.704Z,11.20
2022-08-15T02:40:47.004Z,9.30
2022-08-15T02:41:27.651Z,9.70
2022-08-15T02:42:27.630Z,10.10
2022-08-15T02:43:27.607Z,9.40
2022-08-15T02:44:27.584Z,10.30
2022-08-15T02:45:28.477Z,9.80
2022-08-15T02:46:28.948Z,8.60
2022-08-15T02:47:27.515Z,13.00
2022-08-15T02:48:28.969Z,12.40
2022-08-15T02:49:27.469Z,11.00
2022-08-15T02:50:27.446Z,10.90
2022-08-15T02:51:27.427Z,10.40
2022-08-15T02:52:27.402Z,9.00
2022-08-15T02:53:27.381Z,13.00
2022-08-15T02:54:36.674Z,9.60
2022-08-15T02:55:30.774Z,9.40
2022-08-15T02:56:31.163Z,10.20
2022-08-15T02:57:27.288Z,11.90
2022-08-15T02:58:28.524Z,10.60
2022-08-15T02:59:27.244Z,11.30
2022-08-15T03:00:27.600Z,11.40
2022-08-15T03:01:27.221Z,12.20
2022-08-15T03:02:30.030Z,11.80
2022-08-15T03:03:27.156Z,16.00
2022-08-15T03:04:27.576Z,10.50
2022-08-15T03:05:27.109Z,13.10
2022-08-15T03:06:31.115Z,11.30
2022-08-15T03:07:27.064Z,10.40
2022-08-15T03:08:27.044Z,11.80
2022-08-15T03:09:32.374Z,11.00
2022-08-15T03:10:29.519Z,9.60
2022-08-15T03:11:26.974Z,13.70
2022-08-15T03:12:31.209Z,11.40
2022-08-15T03:13:26.928Z,11.40
2022-08-15T03:14:33.806Z,10.10
2022-08-15T03:15:26.883Z,11.00
2022-08-15T03:16:26.862Z,11.00
2022-08-15T03:17:26.837Z,13.20
2022-08-15T03:18:31.186Z,12.40
2022-08-15T03:19:26.790Z,11.60
2022-08-15T03:20:30.846Z,12.50
2022-08-15T03:21:26.747Z,12.30
2022-08-15T03:22:42.673Z,9.40
2022-08-15T03:23:41.514Z,10.90
2022-08-15T03:24:26.678Z,9.70
2022-08-15T03:25:29.782Z,9.20
2022-08-15T03:26:46.248Z,9.70
2022-08-15T03:27:26.609Z,9.80
2022-08-15T03:28:28.145Z,14.00
2022-08-15T03:29:31.473Z,10.00
2022-08-15T03:30:26.546Z,11.90
2022-08-15T03:31:26.518Z,11.80
2022-08-15T03:32:32.717Z,10.50
2022-08-15T03:33:54.620Z,10.80
2022-08-15T03:34:28.737Z,10.80
2022-08-15T03:35:27.445Z,8.60
2022-08-15T03:36:26.407Z,9.00
2022-08-15T03:37:26.382Z,8.20
2022-08-15T03:38:49.000Z,8.30
2022-08-15T03:39:26.492Z,9.50
2022-08-15T03:40:28.891Z,8.40
2022-08-15T03:41:26.291Z,8.60
2022-08-15T03:42:26.270Z,8.70
2022-08-15T03:43:26.247Z,8.60
2022-08-15T03:44:28.200Z,7.50
2022-08-15T03:45:26.200Z,7.70
2022-08-15T03:46:26.182Z,7.50
2022-08-15T03:47:26.156Z,8.00
2022-08-15T03:48:27.950Z,9.80
2022-08-15T03:50:24.235Z,10.40
2022-08-15T03:50:35.596Z,8.60
2022-08-15T03:51:26.062Z,8.70
2022-08-15T03:52:31.756Z,7.40
2022-08-15T03:53:28.497Z,7.70
2022-08-15T03:54:26.104Z,9.30
2022-08-15T03:55:25.971Z,8.20
2022-08-15T03:56:25.949Z,8.00
2022-08-15T03:57:25.924Z,8.30
2022-08-15T03:58:32.631Z,8.50
2022-08-15T03:59:25.887Z,7.90
2022-08-15T04:00:26.359Z,7.40
2022-08-15T04:01:29.118Z,7.50
2022-08-15T04:02:30.258Z,7.20
2022-08-15T04:03:25.794Z,8.00
2022-08-15T04:04:25.768Z,9.40
2022-08-15T04:05:25.743Z,9.50
2022-08-15T04:06:28.183Z,8.90
2022-08-15T04:07:25.696Z,9.00
2022-08-15T04:08:47.794Z,8.10
2022-08-15T04:09:26.440Z,10.20
2022-08-15T04:10:38.274Z,9.30
2022-08-15T04:11:34.973Z,8.20
2022-08-15T04:12:26.140Z,9.80
2022-08-15T04:13:25.563Z,9.60
2022-08-15T04:14:33.463Z,9.30
2022-08-15T04:15:25.514Z,10.60
2022-08-15T04:17:03.922Z,8.60
2022-08-15T04:17:56.545Z,8.40
2022-08-15T04:18:43.406Z,9.30
2022-08-15T04:19:25.422Z,9.00
2022-08-15T04:20:32.017Z,8.20
2022-08-15T04:21:25.377Z,7.90
2022-08-15T04:22:28.671Z,7.00
2022-08-15T04:23:25.333Z,7.50
2022-08-15T04:24:28.770Z,7.20
2022-08-15T04:25:25.287Z,7.20
2022-08-15T04:26:26.694Z,7.80
2022-08-15T04:27:25.242Z,6.30
2022-08-15T04:28:39.164Z,10.00
2022-08-15T04:29:25.196Z,7.50
2022-08-15T04:30:25.174Z,6.80
2022-08-15T04:31:25.152Z,8.10
2022-08-15T04:32:29.237Z,8.00
2022-08-15T04:34:01.791Z,7.60
2022-08-15T04:34:48.552Z,9.60
2022-08-15T04:35:25.061Z,7.90
2022-08-15T04:36:30.312Z,7.90
2022-08-15T04:37:25.252Z,7.40
2022-08-15T04:38:24.991Z,6.90
2022-08-15T04:39:25.021Z,7.20
2022-08-15T04:41:15.474Z,7.40
2022-08-15T04:41:28.791Z,9.50
2022-08-15T04:42:24.898Z,8.20
2022-08-15T04:43:24.874Z,6.70
2022-08-15T04:44:28.795Z,9.30
2022-08-15T04:45:24.828Z,8.70
2022-08-15T04:46:26.500Z,8.70
2022-08-15T04:47:24.782Z,8.30
2022-08-15T04:48:24.761Z,7.70
2022-08-15T04:49:24.736Z,8.40
2022-08-15T04:50:24.714Z,6.40
2022-08-15T04:51:34.869Z,7.60
2022-08-15T04:52:24.669Z,9.30
2022-08-15T04:53:24.986Z,8.10
2022-08-15T04:54:24.625Z,8.20
2022-08-15T04:55:44.272Z,7.40
2022-08-15T04:56:48.304Z,9.70
2022-08-15T04:57:24.555Z,8.80
2022-08-15T04:58:41.836Z,8.10
2022-08-15T04:59:34.638Z,8.30
2022-08-15T05:00:24.487Z,7.90
2022-08-15T05:01:24.495Z,7.70
2022-08-15T05:02:50.595Z,10.30
2022-08-15T05:03:24.466Z,8.00
2022-08-15T05:04:26.039Z,10.10
2022-08-15T05:05:24.370Z,7.80
2022-08-15T05:06:29.248Z,7.70
2022-08-15T05:07:27.100Z,8.20
2022-08-15T05:08:24.305Z,7.90
2022-08-15T05:09:24.303Z,9.40
2022-08-15T05:10:24.255Z,8.90
2022-08-15T05:11:24.231Z,10.00
2022-08-15T05:12:24.209Z,9.90
2022-08-15T05:13:24.185Z,8.70
2022-08-15T05:14:35.690Z,7.80
2022-08-15T05:15:24.140Z,10.20
2022-08-15T05:16:33.569Z,10.00
2022-08-15T05:17:24.093Z,9.30
2022-08-15T05:18:24.074Z,11.10
2022-08-15T05:19:24.049Z,9.00
2022-08-15T05:20:24.330Z,9.30
2022-08-15T05:21:43.146Z,8.30
2022-08-15T05:22:36.162Z,9.50
2022-08-15T05:23:34.161Z,7.70
2022-08-15T05:24:29.365Z,8.40
2022-08-15T05:25:25.391Z,7.90
2022-08-15T05:26:54.035Z,9.00
2022-08-15T05:27:23.871Z,8.50
2022-08-15T05:28:29.118Z,9.10
2022-08-15T05:29:23.826Z,8.30
2022-08-15T05:30:23.813Z,11.20
2022-08-15T05:31:23.776Z,9.60
2022-08-15T05:32:23.755Z,8.50
2022-08-15T05:33:57.183Z,8.10
2022-08-15T05:34:43.056Z,9.40
2022-08-15T05:35:23.685Z,9.50
2022-08-15T05:36:28.057Z,10.30
2022-08-15T05:37:23.639Z,7.80
2022-08-15T05:38:31.148Z,9.30
2022-08-15T05:39:23.664Z,9.30
2022-08-15T05:40:24.492Z,7.50
2022-08-15T05:41:23.548Z,7.40
2022-08-15T05:42:31.320Z,9.30
2022-08-15T05:43:23.604Z,7.90
2022-08-15T05:44:39.063Z,8.60
2022-08-15T05:45:30.819Z,8.30
2022-08-15T05:46:25.314Z,10.10
2022-08-15T05:47:23.410Z,10.10
2022-08-15T05:48:33.906Z,10.40
2022-08-15T05:49:23.365Z,7.50
2022-08-15T05:50:25.576Z,7.90
2022-08-15T05:51:23.320Z,8.20
2022-08-15T05:52:23.299Z,9.00
2022-08-15T05:53:24.711Z,9.90
2022-08-15T05:54:25.859Z,8.40
2022-08-15T05:55:23.230Z,11.90
2022-08-15T05:56:23.208Z,8.10
2022-08-15T05:57:23.184Z,8.40
2022-08-15T05:58:37.873Z,9.60
2022-08-15T05:59:23.141Z,10.20
2022-08-15T06:00:23.152Z,9.90
2022-08-15T06:01:23.127Z,8.00
2022-08-15T06:02:37.154Z,10.20
2022-08-15T06:03:23.113Z,8.70
2022-08-15T06:04:30.072Z,10.10
2022-08-15T06:05:23.007Z,9.00
2022-08-15T06:06:25.514Z,8.60
2022-08-15T06:07:22.961Z,8.00
2022-08-15T06:08:50.120Z,9.10
2022-08-15T06:09:23.091Z,8.10
2022-08-15T06:10:35.364Z,7.90
2022-08-15T06:11:22.869Z,7.00
2022-08-15T06:12:26.030Z,8.40
2022-08-15T06:13:22.825Z,8.30
2022-08-15T06:14:34.964Z,8.30
2022-08-15T06:15:22.782Z,7.30
2022-08-15T06:16:45.950Z,7.50
2022-08-15T06:17:25.430Z,8.00
2022-08-15T06:18:22.716Z,10.30
2022-08-15T06:19:22.859Z,7.30
2022-08-15T06:20:29.555Z,9.60
2022-08-15T06:21:22.647Z,7.20
2022-08-15T06:22:25.628Z,6.30
2022-08-15T06:23:36.875Z,7.20
2022-08-15T06:24:26.488Z,8.10
2022-08-15T06:25:22.558Z,5.30
2022-08-15T06:26:22.540Z,6.10
2022-08-15T06:27:39.862Z,8.00
2022-08-15T06:28:28.180Z,5.70
2022-08-15T06:29:22.468Z,6.10
2022-08-15T06:30:22.447Z,7.20
2022-08-15T06:31:22.423Z,6.40
2022-08-15T06:32:23.085Z,6.40
2022-08-15T06:33:22.382Z,5.90
2022-08-15T06:34:54.814Z,5.40
2022-08-15T06:35:26.111Z,6.30
2022-08-15T06:36:22.313Z,6.50
2022-08-15T06:37:22.290Z,5.60
2022-08-15T06:38:36.798Z,6.10
2022-08-15T06:39:22.280Z,5.80
2022-08-15T06:40:27.861Z,5.40
2022-08-15T06:41:25.016Z,5.90
2022-08-15T06:42:22.179Z,6.30
2022-08-15T06:43:22.160Z,6.40
2022-08-15T06:44:30.585Z,6.80
2022-08-15T06:45:22.114Z,7.60
2022-08-15T06:46:40.091Z,6.60
2022-08-15T06:47:22.069Z,6.50
2022-08-15T06:48:59.806Z,6.20
2022-08-15T06:49:23.991Z,6.70
2022-08-15T06:50:22.004Z,6.00
2022-08-15T06:51:21.981Z,8.10
2022-08-15T06:52:25.466Z,7.00
2022-08-15T06:53:21.936Z,5.30
2022-08-15T06:54:34.860Z,7.90
2022-08-15T06:55:21.893Z,5.20
2022-08-15T06:56:21.878Z,7.30
2022-08-15T06:57:21.849Z,5.70
2022-08-15T06:58:56.157Z,5.20
2022-08-15T06:59:35.991Z,7.60
2022-08-15T07:00:35.986Z,5.10
2022-08-15T07:01:21.810Z,5.10
2022-08-15T07:02:21.857Z,5.40
2022-08-15T07:03:25.711Z,6.10
2022-08-15T07:04:21.697Z,6.70
2022-08-15T07:05:27.591Z,8.70
2022-08-15T07:06:21.652Z,7.00
2022-08-15T07:07:21.828Z,6.70
2022-08-15T07:08:21.608Z,7.60
2022-08-15T07:09:23.265Z,6.10
2022-08-15T07:10:21.565Z,5.80
2022-08-15T07:11:21.550Z,5.40
2022-08-15T07:12:37.620Z,5.80
2022-08-15T07:13:21.499Z,6.20
2022-08-15T07:14:22.795Z,5.20
2022-08-15T07:15:21.456Z,5.90
2022-08-15T07:16:21.434Z,5.30
2022-08-15T07:17:21.412Z,9.40
2022-08-15T07:18:21.388Z,6.50
2022-08-15T07:19:21.367Z,6.90
2022-08-15T07:20:38.209Z,5.70
2022-08-15T07:21:21.326Z,5.50
2022-08-15T07:22:35.022Z,5.70
2022-08-15T07:23:21.281Z,6.20
2022-08-15T07:24:33.315Z,6.00
2022-08-15T07:25:21.236Z,6.20
2022-08-15T07:26:21.215Z,8.10
2022-08-15T07:27:21.194Z,5.50
2022-08-15T07:28:21.171Z,5.20
2022-08-15T07:29:21.152Z,6.00
2022-08-15T07:30:30.906Z,6.40
2022-08-15T07:31:25.322Z,5.70
2022-08-15T07:32:32.679Z,5.50
2022-08-15T07:33:23.203Z,5.20
2022-08-15T07:34:22.915Z,5.80
2022-08-15T07:35:21.022Z,4.20
2022-08-15T07:36:29.540Z,5.20
2022-08-15T07:37:20.978Z,5.50
2022-08-15T07:38:22.088Z,5.60
2022-08-15T07:39:33.062Z,4.70
2022-08-15T07:40:28.775Z,4.90
2022-08-15T07:41:20.892Z,4.80
2022-08-15T07:42:28.883Z,5.30
2022-08-15T07:43:21.052Z,4.70
2022-08-15T07:44:21.769Z,4.20
2022-08-15T07:45:20.806Z,4.80
2022-08-15T07:46:23.335Z,4.60
2022-08-15T07:47:20.960Z,6.30
2022-08-15T07:48:20.742Z,5.40
2022-08-15T07:49:22.123Z,5.00
2022-08-15T07:50:36.516Z,4.90
2022-08-15T07:51:21.664Z,4.60
2022-08-15T07:53:20.633Z,4.50
2022-08-15T07:54:34.185Z,4.80
2022-08-15T07:56:14.595Z,4.20
2022-08-15T07:56:39.200Z,4.40
2022-08-15T07:57:20.633Z,5.60
2022-08-15T07:58:23.848Z,4.30
2022-08-15T07:59:23.789Z,5.00
2022-08-15T08:00:45.129Z,6.60
2022-08-15T08:01:34.308Z,4.70
2022-08-15T08:02:29.923Z,6.10
2022-08-15T08:03:20.567Z,4.80
2022-08-15T08:04:23.424Z,5.40
2022-08-15T08:06:33.285Z,6.40
2022-08-15T08:07:33.808Z,6.50
2022-08-15T08:08:43.983Z,4.60
2022-08-15T08:09:20.293Z,4.60
2022-08-15T08:10:23.450Z,5.40
2022-08-15T08:11:20.248Z,5.10
2022-08-15T08:12:30.247Z,5.40
2022-08-15T08:13:22.618Z,5.70
2022-08-15T08:14:40.656Z,4.90
2022-08-15T08:15:37.395Z,5.80
2022-08-15T08:16:22.967Z,5.00
2022-08-15T08:17:20.119Z,5.00
2022-08-15T08:18:26.634Z,7.00
2022-08-15T08:19:20.078Z,6.00
2022-08-15T08:20:21.344Z,8.10
2022-08-15T08:21:29.505Z,5.30
2022-08-15T08:22:21.820Z,5.80
2022-08-15T08:23:19.995Z,5.80
2022-08-15T08:24:19.973Z,5.30
2022-08-15T08:25:36.745Z,6.50
2022-08-15T08:26:21.471Z,6.30
2022-08-15T08:27:19.911Z,5.30
2022-08-15T08:28:19.889Z,5.80
2022-08-15T08:29:19.899Z,4.80
2022-08-15T08:30:43.319Z,6.50
2022-08-15T08:31:19.827Z,5.50
2022-08-15T08:32:24.291Z,4.70
2022-08-15T08:33:19.785Z,5.50
2022-08-15T08:34:38.821Z,6.50
2022-08-15T08:35:19.743Z,4.60
2022-08-15T08:36:36.603Z,5.80
2022-08-15T08:37:19.711Z,5.10
2022-08-15T08:38:59.039Z,5.60
2022-08-15T08:39:19.728Z,6.10
2022-08-15T08:40:19.688Z,8.20
2022-08-15T08:41:19.616Z,6.10
2022-08-15T08:42:20.666Z,4.60
2022-08-15T08:43:19.575Z,6.10
2022-08-15T08:44:23.320Z,5.30
2022-08-15T08:45:19.532Z,6.50
2022-08-15T08:46:29.287Z,6.70
2022-08-15T08:47:19.493Z,5.90
2022-08-15T08:48:20.751Z,7.10
2022-08-15T08:49:19.450Z,7.10
2022-08-15T08:50:32.012Z,6.60
2022-08-15T08:51:19.483Z,5.80
2022-08-15T08:52:26.839Z,6.30
2022-08-15T08:53:19.366Z,6.70
2022-08-15T08:54:24.564Z,7.70
2022-08-15T08:55:19.326Z,5.60
2022-08-15T08:56:33.371Z,5.30
2022-08-15T08:57:19.285Z,6.30
2022-08-15T08:58:35.825Z,5.30
2022-08-15T08:59:19.317Z,5.90
2022-08-15T09:00:19.224Z,5.60
2022-08-15T09:01:20.392Z,8.90
2022-08-15T09:02:21.034Z,6.90
2022-08-15T09:03:19.162Z,5.10
2022-08-15T09:04:19.213Z,5.10
2022-08-15T09:05:19.121Z,5.10
2022-08-15T09:06:26.488Z,5.90
2022-08-15T09:07:19.080Z,6.00
2022-08-15T09:08:21.589Z,4.80
2022-08-15T09:09:22.879Z,5.60
2022-08-15T09:10:27.479Z,4.10
2022-08-15T09:11:18.997Z,6.20
2022-08-15T09:12:18.987Z,4.30
2022-08-15T09:13:18.956Z,5.50
2022-08-15T09:14:32.226Z,5.60
2022-08-15T09:15:19.983Z,5.40
2022-08-15T09:16:18.893Z,6.80
2022-08-15T09:17:30.524Z,6.20
2022-08-15T09:18:19.297Z,6.20
2022-08-15T09:19:18.832Z,5.90
2022-08-15T09:20:19.413Z,4.90
2022-08-15T09:21:18.793Z,6.00
2022-08-15T09:22:18.771Z,5.70
2022-08-15T09:23:21.743Z,6.90
2022-08-15T09:24:37.319Z,6.50
2022-08-15T09:25:18.711Z,5.10
2022-08-15T09:26:20.438Z,6.70
2022-08-15T09:27:18.672Z,5.90
2022-08-15T09:28:28.754Z,6.10
2022-08-15T09:29:19.590Z,6.90
2022-08-15T09:30:45.785Z,5.00
2022-08-15T09:31:23.709Z,5.20
2022-08-15T09:32:30.663Z,5.70
2022-08-15T09:34:30.706Z,7.20
2022-08-15T09:35:23.413Z,4.30
2022-08-15T09:36:26.996Z,6.10
2022-08-15T09:37:18.468Z,5.80
2022-08-15T09:38:26.057Z,4.90
2022-08-15T09:39:18.429Z,5.10
2022-08-15T09:40:58.123Z,6.60
2022-08-15T09:41:20.547Z,7.50
2022-08-15T09:42:33.392Z,7.50
2022-08-15T09:43:18.346Z,6.90
2022-08-15T09:44:36.955Z,6.80
2022-08-15T09:45:18.308Z,5.70
2022-08-15T09:46:36.525Z,6.30
2022-08-15T09:47:20.272Z,5.70
2022-08-15T09:48:18.246Z,6.90
2022-08-15T09:49:18.234Z,5.70
2022-08-15T09:50:35.398Z,4.90
2022-08-15T09:51:18.188Z,6.60
2022-08-15T09:52:35.887Z,4.60
2022-08-15T09:53:18.148Z,7.00
2022-08-15T09:54:29.312Z,6.70
2022-08-15T09:55:18.108Z,5.30
2022-08-15T09:56:18.729Z,5.30
2022-08-15T09:57:18.072Z,6.10
2022-08-15T09:58:19.540Z,5.20
2022-08-15T09:59:19.696Z,6.10
2022-08-15T10:00:20.779Z,6.10
2022-08-15T10:01:18.050Z,6.40
2022-08-15T10:02:37.783Z,5.80
2022-08-15T10:03:17.954Z,6.50
2022-08-15T10:04:21.820Z,5.90
2022-08-15T10:05:17.915Z,5.70
2022-08-15T10:06:32.582Z,5.50
2022-08-15T10:07:17.881Z,6.50
2022-08-15T10:08:28.929Z,5.40
2022-08-15T10:09:27.027Z,6.30
2022-08-15T10:10:17.817Z,7.60
2022-08-15T10:11:17.797Z,5.70
2022-08-15T10:12:17.778Z,5.70
2022-08-15T10:13:17.758Z,5.50
2022-08-15T10:14:17.735Z,6.80
2022-08-15T10:15:17.717Z,5.90
2022-08-15T10:16:17.697Z,6.80
2022-08-15T10:17:17.677Z,5.10
2022-08-15T10:18:17.661Z,7.10
2022-08-15T10:19:17.639Z,7.80
2022-08-15T10:20:19.458Z,6.70
2022-08-15T10:21:17.605Z,7.90
2022-08-15T10:22:17.581Z,6.80
2022-08-15T10:23:17.564Z,7.40
2022-08-15T10:24:28.611Z,4.80
2022-08-15T10:25:17.523Z,5.80
2022-08-15T10:26:34.475Z,7.20
2022-08-15T10:27:17.485Z,5.10
2022-08-15T10:28:35.551Z,6.20
2022-08-15T10:29:20.080Z,5.00
2022-08-15T10:30:45.946Z,7.80
2022-08-15T10:31:17.405Z,5.50
2022-08-15T10:32:36.671Z,6.20
2022-08-15T10:33:23.871Z,4.50
2022-08-15T10:34:17.346Z,6.60
2022-08-15T10:35:17.331Z,4.60
2022-08-15T10:36:29.910Z,6.20
2022-08-15T10:37:17.291Z,6.10
2022-08-15T10:38:32.126Z,5.20
2022-08-15T10:39:18.768Z,5.10
2022-08-15T10:40:17.309Z,5.80
2022-08-15T10:41:17.213Z,5.30
2022-08-15T10:42:22.625Z,4.60
2022-08-15T10:43:17.175Z,8.10
2022-08-15T10:44:35.249Z,7.10
2022-08-15T10:45:17.138Z,7.70
2022-08-15T10:46:17.118Z,7.40
2022-08-15T10:47:17.295Z,6.30
2022-08-15T10:48:44.461Z,5.40
2022-08-15T10:49:25.678Z,5.40
2022-08-15T10:50:23.983Z,5.40
2022-08-15T10:51:17.023Z,4.80
2022-08-15T10:52:18.726Z,7.70
2022-08-15T10:53:16.985Z,5.90
2022-08-15T10:54:19.059Z,5.80
2022-08-15T10:55:16.950Z,6.40
2022-08-15T10:56:59.631Z,5.30
2022-08-15T10:57:16.909Z,6.00
2022-08-15T10:58:20.052Z,5.80
2022-08-15T10:59:17.001Z,5.20
2022-08-15T11:00:37.393Z,5.50
2022-08-15T11:01:17.471Z,5.60
2022-08-15T11:02:17.451Z,5.60
2022-08-15T11:03:16.794Z,6.30
2022-08-15T11:04:49.387Z,4.90
2022-08-15T11:05:16.756Z,5.30
2022-08-15T11:06:16.736Z,5.10
2022-08-15T11:07:16.720Z,5.80
2022-08-15T11:08:17.192Z,5.30
2022-08-15T11:09:16.681Z,6.20
2022-08-15T11:10:21.603Z,5.10
2022-08-15T11:11:19.537Z,6.10
2022-08-15T11:12:16.877Z,5.70
2022-08-15T11:13:16.605Z,5.40
2022-08-15T11:14:20.671Z,5.00
2022-08-15T11:15:22.468Z,4.10
2022-08-15T11:16:32.516Z,5.20
2022-08-15T11:17:16.534Z,5.50
2022-08-15T11:18:21.805Z,4.90
2022-08-15T11:19:20.096Z,5.40
2022-08-15T11:20:16.486Z,7.00
2022-08-15T11:21:16.458Z,4.80
2022-08-15T11:22:16.437Z,5.10
2022-08-15T11:23:16.420Z,5.90
2022-08-15T11:24:16.401Z,5.00
2022-08-15T11:25:16.382Z,5.40
2022-08-15T11:26:23.082Z,6.00
2022-08-15T11:27:23.949Z,4.50
2022-08-15T11:28:37.046Z,4.70
2022-08-15T11:29:16.303Z,5.40
2022-08-15T11:30:22.132Z,5.80
2022-08-15T11:31:16.268Z,4.80
2022-08-15T11:32:25.061Z,5.80
2022-08-15T11:33:16.230Z,5.90
2022-08-15T11:34:37.204Z,7.00
2022-08-15T11:35:16.195Z,7.30
2022-08-15T11:36:17.465Z,6.50
2022-08-15T11:37:17.059Z,4.80
2022-08-15T11:38:20.649Z,5.90
2022-08-15T11:39:19.426Z,5.80
2022-08-15T11:40:16.529Z,5.60
2022-08-15T11:41:16.086Z,5.40
2022-08-15T11:42:17.662Z,5.80
2022-08-15T11:43:16.047Z,6.00
2022-08-15T11:44:16.031Z,5.90
2022-08-15T11:45:16.010Z,4.10
2022-08-15T11:46:30.551Z,5.10
2022-08-15T11:47:15.973Z,6.30
2022-08-15T11:48:15.959Z,4.90
2022-08-15T11:49:15.936Z,5.40
2022-08-15T11:50:16.013Z,5.80
2022-08-15T11:51:16.351Z,5.10
2022-08-15T11:52:39.090Z,6.00
2022-08-15T11:53:15.862Z,6.30
2022-08-15T11:54:15.848Z,5.40
2022-08-15T11:55:23.806Z,6.00
2022-08-15T11:56:23.297Z,4.80
2022-08-15T11:57:43.248Z,6.80
2022-08-15T11:58:18.435Z,6.30
2022-08-15T11:59:15.753Z,6.80
2022-08-15T12:00:21.811Z,4.40
2022-08-15T12:01:15.717Z,4.50
2022-08-15T12:02:31.659Z,5.50
2022-08-15T12:04:39.481Z,4.60
2022-08-15T12:05:42.613Z,5.80
2022-08-15T12:06:30.533Z,5.10
2022-08-15T12:07:15.614Z,6.20
2022-08-15T12:08:27.883Z,4.40
2022-08-15T12:09:15.575Z,7.20
2022-08-15T12:10:30.068Z,5.50
2022-08-15T12:11:15.819Z,5.60
2022-08-15T12:12:16.395Z,5.20
2022-08-15T12:13:12.041Z,4.80
2022-08-15T12:13:33.815Z,4.70
2022-08-15T12:14:23.760Z,5.20
2022-08-15T12:15:17.568Z,5.80
2022-08-15T12:16:29.656Z,5.50
2022-08-15T12:17:15.432Z,5.90
2022-08-15T12:18:32.480Z,6.00
2022-08-15T12:19:15.397Z,5.20
2022-08-15T12:20:25.297Z,5.80
2022-08-15T12:21:15.360Z,4.40
2022-08-15T12:22:54.094Z,6.00
2022-08-15T12:23:16.054Z,5.00
2022-08-15T12:24:15.306Z,7.40
2022-08-15T12:25:18.833Z,5.50
2022-08-15T12:26:37.909Z,6.80
2022-08-15T12:27:16.037Z,5.70
2022-08-15T12:28:24.165Z,5.80
2022-08-15T12:29:15.252Z,5.70
2022-08-15T12:30:15.203Z,5.10
2022-08-15T12:31:17.222Z,5.70
2022-08-15T12:32:36.212Z,5.20
2022-08-15T12:33:15.149Z,5.00
2022-08-15T12:34:27.972Z,5.00
2022-08-15T12:35:24.810Z,6.70
2022-08-15T12:37:03.274Z,5.90
2022-08-15T12:37:39.589Z,4.00
2022-08-15T12:38:15.062Z,5.90
2022-08-15T12:39:15.044Z,5.90
2022-08-15T12:40:54.489Z,5.70
2022-08-15T12:42:47.058Z,7.80
2022-08-15T12:42:49.576Z,6.40
2022-08-15T12:43:17.494Z,5.70
2022-08-15T12:44:14.973Z,5.00
2022-08-15T12:45:14.952Z,5.90
2022-08-15T12:46:14.924Z,4.60
2022-08-15T12:47:14.906Z,6.30
2022-08-15T12:48:26.569Z,6.60
2022-08-15T12:49:14.872Z,6.30
2022-08-15T12:50:14.858Z,4.20
2022-08-15T12:51:14.837Z,4.40
2022-08-15T12:52:14.821Z,5.40
2022-08-15T12:53:14.805Z,5.10
2022-08-15T12:54:26.895Z,6.20
2022-08-15T12:55:14.812Z,5.80
2022-08-15T12:56:30.833Z,9.50
2022-08-15T12:57:18.906Z,5.70
2022-08-15T12:58:16.996Z,7.60
2022-08-15T12:59:14.711Z,8.70
2022-08-15T13:00:34.439Z,10.90
2022-08-15T13:01:24.518Z,7.30
2022-08-15T13:02:48.406Z,9.80
2022-08-15T13:03:16.802Z,6.10
2022-08-15T13:04:54.559Z,6.20
2022-08-15T13:05:14.754Z,4.40
2022-08-15T13:06:34.926Z,7.90
2022-08-15T13:07:14.657Z,6.10
2022-08-15T13:08:27.391Z,5.10
2022-08-15T13:09:14.531Z,12.10
2022-08-15T13:11:00.550Z,7.80
2022-08-15T13:11:16.558Z,6.70
2022-08-15T13:12:18.479Z,5.30
2022-08-15T13:13:14.458Z,10.90
2022-08-15T13:14:14.441Z,6.00
2022-08-15T13:15:14.423Z,11.90
2022-08-15T13:17:05.750Z,6.30
2022-08-15T13:17:47.302Z,6.00
2022-08-15T13:18:19.285Z,4.70